This is the latest recevied weather packets stored in our database for station/object SQ2WB-13. If no packets are shown the sender has not sent any weather packets the latest 10 day(s).
| Time | Temp. | Humidity | Pressure | Rain* | Wind** | Luminosity | Snow |
|---|---|---|---|---|---|---|---|
| 1777788002 | 16.67° C | 50% | 1007.7 hPa | 0 mm | - | - | - |
| 1777787101 | 16.67° C | 53% | 1007.7 hPa | 0 mm | - | - | - |
| 1777786201 | 15.56° C | 54% | 1007.7 hPa | 0 mm | - | - | - |
| 1777785302 | 15° C | 56% | 1007.7 hPa | 0 mm | - | - | - |
| 1777784402 | 13.89° C | 58% | 1007.7 hPa | 0 mm | - | - | - |
| 1777783502 | 12.78° C | 59% | 1007.7 hPa | 0 mm | - | - | - |
| 1777782601 | 12.78° C | 59% | 1008.1 hPa | 0 mm | - | - | - |
| 1777781702 | 12.78° C | 60% | 1008.1 hPa | 0 mm | - | - | - |
| 1777780801 | 11.67° C | 61% | 1007.7 hPa | 0 mm | - | - | - |
| 1777779901 | 11.67° C | 61% | 1007.7 hPa | 0 mm | - | - | - |
| 1777779002 | 12.78° C | 59% | 1007.7 hPa | 0 mm | - | - | - |
| 1777778102 | 11.67° C | 60% | 1007.7 hPa | 0 mm | - | - | - |
| 1777777201 | 11.67° C | 60% | 1008.1 hPa | 0 mm | - | - | - |
| 1777776302 | 11.67° C | 60% | 1008.1 hPa | 0 mm | - | - | - |
| 1777775401 | 11.67° C | 60% | 1008.1 hPa | 0 mm | - | - | - |
| 1777774501 | 12.78° C | 59% | 1008.1 hPa | 0 mm | - | - | - |
| 1777773602 | 12.78° C | 58% | 1008.4 hPa | 0 mm | - | - | - |
| 1777772701 | 12.78° C | 58% | 1008.4 hPa | 0 mm | - | - | - |
| 1777771802 | 12.78° C | 58% | 1008.4 hPa | 0 mm | - | - | - |
| 1777770901 | 12.78° C | 57% | 1008.4 hPa | 0 mm | - | - | - |
| 1777770001 | 12.78° C | 57% | 1008.4 hPa | 0 mm | - | - | - |
| 1777769101 | 12.78° C | 56% | 1008.4 hPa | 0 mm | - | - | - |
| 1777768201 | 13.89° C | 54% | 1008.4 hPa | 0 mm | - | - | - |
| 1777767302 | 13.89° C | 54% | 1008.8 hPa | 0 mm | - | - | - |
| 1777766402 | 13.89° C | 56% | 1008.8 hPa | 0 mm | - | - | - |
* Rain latest hour (hover to see other rain measurements)
** Current wind speed in m/s (hover to see current wind gust speed)